sensor_id;sensor_type;location;lat;lon;timestamp;P1;durP1;ratioP1;P2;durP2;ratioP2
26512;SDS011;14186;53.822;10.152;2024-03-17T00:00:23;8.30;;;1.23;;
26512;SDS011;14186;53.822;10.152;2024-03-17T00:05:24;9.38;;;1.73;;
26512;SDS011;14186;53.822;10.152;2024-03-17T00:10:25;6.93;;;1.25;;
26512;SDS011;14186;53.822;10.152;2024-03-17T00:15:26;8.32;;;0.60;;
26512;SDS011;14186;53.822;10.152;2024-03-17T00:20:26;13.30;;;1.13;;
26512;SDS011;14186;53.822;10.152;2024-03-17T00:25:28;4.70;;;0.85;;
26512;SDS011;14186;53.822;10.152;2024-03-17T00:30:28;8.35;;;0.80;;
26512;SDS011;14186;53.822;10.152;2024-03-17T00:35:28;6.68;;;0.70;;
26512;SDS011;14186;53.822;10.152;2024-03-17T00:40:30;10.98;;;1.00;;
26512;SDS011;14186;53.822;10.152;2024-03-17T00:45:30;11.50;;;0.98;;
26512;SDS011;14186;53.822;10.152;2024-03-17T00:50:31;8.38;;;1.27;;
26512;SDS011;14186;53.822;10.152;2024-03-17T00:55:32;8.20;;;0.65;;
26512;SDS011;14186;53.822;10.152;2024-03-17T01:00:33;9.88;;;0.82;;
26512;SDS011;14186;53.822;10.152;2024-03-17T01:05:33;5.70;;;0.80;;
26512;SDS011;14186;53.822;10.152;2024-03-17T01:10:36;2.97;;;0.82;;
26512;SDS011;14186;53.822;10.152;2024-03-17T01:15:37;7.22;;;1.13;;
26512;SDS011;14186;53.822;10.152;2024-03-17T01:20:37;9.32;;;1.35;;
26512;SDS011;14186;53.822;10.152;2024-03-17T01:25:39;11.23;;;1.08;;
26512;SDS011;14186;53.822;10.152;2024-03-17T01:30:39;6.10;;;0.80;;
26512;SDS011;14186;53.822;10.152;2024-03-17T01:35:39;5.30;;;1.45;;
26512;SDS011;14186;53.822;10.152;2024-03-17T01:40:41;8.48;;;0.82;;
26512;SDS011;14186;53.822;10.152;2024-03-17T01:45:41;5.60;;;0.77;;
26512;SDS011;14186;53.822;10.152;2024-03-17T01:50:42;8.07;;;0.70;;
26512;SDS011;14186;53.822;10.152;2024-03-17T01:55:44;5.85;;;0.80;;
26512;SDS011;14186;53.822;10.152;2024-03-17T02:00:46;3.42;;;0.93;;
26512;SDS011;14186;53.822;10.152;2024-03-17T02:05:46;4.47;;;0.80;;
26512;SDS011;14186;53.822;10.152;2024-03-17T02:10:47;1.80;;;0.40;;
26512;SDS011;14186;53.822;10.152;2024-03-17T02:15:52;6.57;;;0.93;;
26512;SDS011;14186;53.822;10.152;2024-03-17T02:20:52;7.75;;;0.80;;
26512;SDS011;14186;53.822;10.152;2024-03-17T02:25:54;6.25;;;0.80;;
26512;SDS011;14186;53.822;10.152;2024-03-17T02:30:54;6.10;;;0.60;;
26512;SDS011;14186;53.822;10.152;2024-03-17T02:35:54;3.60;;;0.73;;
26512;SDS011;14186;53.822;10.152;2024-03-17T02:40:56;3.45;;;0.68;;
26512;SDS011;14186;53.822;10.152;2024-03-17T02:45:56;11.63;;;1.13;;
26512;SDS011;14186;53.822;10.152;2024-03-17T02:50:57;6.05;;;0.70;;
26512;SDS011;14186;53.822;10.152;2024-03-17T02:55:58;5.00;;;0.63;;
26512;SDS011;14186;53.822;10.152;2024-03-17T03:00:58;2.65;;;0.82;;
26512;SDS011;14186;53.822;10.152;2024-03-17T03:05:59;6.18;;;0.52;;
26512;SDS011;14186;53.822;10.152;2024-03-17T03:11:00;5.25;;;0.90;;
26512;SDS011;14186;53.822;10.152;2024-03-17T03:16:01;2.97;;;0.80;;
26512;SDS011;14186;53.822;10.152;2024-03-17T03:21:01;2.63;;;0.68;;
26512;SDS011;14186;53.822;10.152;2024-03-17T03:26:03;3.25;;;0.68;;
26512;SDS011;14186;53.822;10.152;2024-03-17T03:31:03;13.60;;;1.77;;
26512;SDS011;14186;53.822;10.152;2024-03-17T03:36:07;5.88;;;1.42;;
26512;SDS011;14186;53.822;10.152;2024-03-17T03:41:09;4.85;;;0.80;;
26512;SDS011;14186;53.822;10.152;2024-03-17T03:46:09;4.47;;;0.70;;
26512;SDS011;14186;53.822;10.152;2024-03-17T03:51:10;4.65;;;0.98;;
26512;SDS011;14186;53.822;10.152;2024-03-17T03:56:11;5.97;;;0.90;;
26512;SDS011;14186;53.822;10.152;2024-03-17T04:01:12;4.38;;;0.80;;
26512;SDS011;14186;53.822;10.152;2024-03-17T04:06:12;6.13;;;1.00;;
26512;SDS011;14186;53.822;10.152;2024-03-17T04:11:14;6.47;;;1.10;;
26512;SDS011;14186;53.822;10.152;2024-03-17T04:16:14;7.88;;;0.98;;
26512;SDS011;14186;53.822;10.152;2024-03-17T04:21:14;4.85;;;0.90;;
26512;SDS011;14186;53.822;10.152;2024-03-17T04:26:16;7.32;;;0.82;;
26512;SDS011;14186;53.822;10.152;2024-03-17T04:31:16;3.20;;;0.55;;
26512;SDS011;14186;53.822;10.152;2024-03-17T04:36:16;7.95;;;0.80;;
26512;SDS011;14186;53.822;10.152;2024-03-17T04:41:18;5.43;;;0.90;;
26512;SDS011;14186;53.822;10.152;2024-03-17T04:46:18;11.32;;;1.00;;
26512;SDS011;14186;53.822;10.152;2024-03-17T04:51:18;8.00;;;0.82;;
26512;SDS011;14186;53.822;10.152;2024-03-17T04:56:20;4.07;;;0.77;;
26512;SDS011;14186;53.822;10.152;2024-03-17T05:01:20;5.43;;;1.13;;
26512;SDS011;14186;53.822;10.152;2024-03-17T05:06:21;5.10;;;0.77;;
26512;SDS011;14186;53.822;10.152;2024-03-17T05:11:22;6.18;;;0.85;;
26512;SDS011;14186;53.822;10.152;2024-03-17T05:16:22;8.88;;;0.80;;
26512;SDS011;14186;53.822;10.152;2024-03-17T05:21:23;4.30;;;1.15;;
26512;SDS011;14186;53.822;10.152;2024-03-17T05:26:25;12.45;;;1.65;;
26512;SDS011;14186;53.822;10.152;2024-03-17T05:31:25;8.85;;;0.90;;
26512;SDS011;14186;53.822;10.152;2024-03-17T05:36:25;4.82;;;1.05;;
26512;SDS011;14186;53.822;10.152;2024-03-17T05:41:27;2.72;;;0.85;;
26512;SDS011;14186;53.822;10.152;2024-03-17T05:46:27;4.28;;;1.13;;
26512;SDS011;14186;53.822;10.152;2024-03-17T05:51:27;2.30;;;0.73;;
26512;SDS011;14186;53.822;10.152;2024-03-17T05:56:29;5.63;;;0.85;;
26512;SDS011;14186;53.822;10.152;2024-03-17T06:01:29;5.45;;;1.42;;
26512;SDS011;14186;53.822;10.152;2024-03-17T06:06:29;10.85;;;1.55;;
26512;SDS011;14186;53.822;10.152;2024-03-17T06:11:31;10.27;;;1.95;;
26512;SDS011;14186;53.822;10.152;2024-03-17T06:16:31;10.65;;;2.63;;
26512;SDS011;14186;53.822;10.152;2024-03-17T06:21:32;5.47;;;1.40;;
26512;SDS011;14186;53.822;10.152;2024-03-17T06:26:33;4.60;;;1.20;;
26512;SDS011;14186;53.822;10.152;2024-03-17T06:31:33;9.57;;;2.13;;
26512;SDS011;14186;53.822;10.152;2024-03-17T06:36:34;6.05;;;2.03;;
26512;SDS011;14186;53.822;10.152;2024-03-17T06:41:35;6.47;;;1.88;;
26512;SDS011;14186;53.822;10.152;2024-03-17T06:46:35;7.75;;;1.30;;
26512;SDS011;14186;53.822;10.152;2024-03-17T06:51:37;5.13;;;1.42;;
26512;SDS011;14186;53.822;10.152;2024-03-17T06:56:39;6.05;;;1.67;;
26512;SDS011;14186;53.822;10.152;2024-03-17T07:01:39;6.03;;;1.48;;
26512;SDS011;14186;53.822;10.152;2024-03-17T07:06:39;8.45;;;1.65;;
26512;SDS011;14186;53.822;10.152;2024-03-17T07:11:41;13.50;;;2.22;;
26512;SDS011;14186;53.822;10.152;2024-03-17T07:16:41;8.35;;;1.45;;
26512;SDS011;14186;53.822;10.152;2024-03-17T07:21:41;13.90;;;1.95;;
26512;SDS011;14186;53.822;10.152;2024-03-17T07:26:43;6.32;;;1.75;;
26512;SDS011;14186;53.822;10.152;2024-03-17T07:31:43;10.63;;;1.63;;
26512;SDS011;14186;53.822;10.152;2024-03-17T07:36:43;5.72;;;1.60;;
26512;SDS011;14186;53.822;10.152;2024-03-17T07:41:46;10.20;;;1.30;;
26512;SDS011;14186;53.822;10.152;2024-03-17T07:46:47;7.75;;;1.65;;
26512;SDS011;14186;53.822;10.152;2024-03-17T07:51:47;5.72;;;1.65;;
26512;SDS011;14186;53.822;10.152;2024-03-17T07:56:49;13.88;;;2.05;;
26512;SDS011;14186;53.822;10.152;2024-03-17T08:01:49;9.27;;;1.30;;
26512;SDS011;14186;53.822;10.152;2024-03-17T08:06:49;7.30;;;1.13;;
26512;SDS011;14186;53.822;10.152;2024-03-17T08:11:51;9.32;;;2.00;;
26512;SDS011;14186;53.822;10.152;2024-03-17T08:16:52;7.75;;;1.55;;
26512;SDS011;14186;53.822;10.152;2024-03-17T08:21:52;5.28;;;1.00;;
26512;SDS011;14186;53.822;10.152;2024-03-17T08:26:53;9.75;;;1.05;;
26512;SDS011;14186;53.822;10.152;2024-03-17T08:31:54;9.20;;;1.48;;
26512;SDS011;14186;53.822;10.152;2024-03-17T08:36:54;14.88;;;1.80;;
26512;SDS011;14186;53.822;10.152;2024-03-17T08:41:55;8.45;;;1.00;;
26512;SDS011;14186;53.822;10.152;2024-03-17T08:46:56;11.27;;;1.88;;
26512;SDS011;14186;53.822;10.152;2024-03-17T08:51:56;11.30;;;1.15;;
26512;SDS011;14186;53.822;10.152;2024-03-17T08:56:58;6.72;;;1.30;;
26512;SDS011;14186;53.822;10.152;2024-03-17T09:01:58;4.15;;;0.90;;
26512;SDS011;14186;53.822;10.152;2024-03-17T09:06:58;7.13;;;1.35;;
26512;SDS011;14186;53.822;10.152;2024-03-17T09:12:00;4.65;;;0.80;;
26512;SDS011;14186;53.822;10.152;2024-03-17T09:17:00;8.75;;;1.63;;
26512;SDS011;14186;53.822;10.152;2024-03-17T09:22:00;7.25;;;1.13;;
26512;SDS011;14186;53.822;10.152;2024-03-17T09:27:02;3.97;;;0.95;;
26512;SDS011;14186;53.822;10.152;2024-03-17T09:32:02;14.77;;;2.17;;
26512;SDS011;14186;53.822;10.152;2024-03-17T09:37:03;12.95;;;1.80;;
26512;SDS011;14186;53.822;10.152;2024-03-17T09:42:05;10.75;;;1.13;;
26512;SDS011;14186;53.822;10.152;2024-03-17T09:47:05;8.80;;;1.10;;
26512;SDS011;14186;53.822;10.152;2024-03-17T09:52:06;8.60;;;2.00;;
26512;SDS011;14186;53.822;10.152;2024-03-17T09:57:16;6.15;;;1.40;;
26512;SDS011;14186;53.822;10.152;2024-03-17T10:02:17;8.50;;;1.73;;
26512;SDS011;14186;53.822;10.152;2024-03-17T10:07:17;7.75;;;1.13;;
26512;SDS011;14186;53.822;10.152;2024-03-17T10:12:26;8.68;;;1.00;;
26512;SDS011;14186;53.822;10.152;2024-03-17T10:17:29;3.63;;;0.73;;
26512;SDS011;14186;53.822;10.152;2024-03-17T10:22:30;5.32;;;0.80;;
26512;SDS011;14186;53.822;10.152;2024-03-17T10:27:31;3.50;;;0.90;;
26512;SDS011;14186;53.822;10.152;2024-03-17T10:32:32;6.18;;;0.80;;
26512;SDS011;14186;53.822;10.152;2024-03-17T10:37:32;5.72;;;1.00;;
26512;SDS011;14186;53.822;10.152;2024-03-17T10:42:34;7.35;;;1.27;;
26512;SDS011;14186;53.822;10.152;2024-03-17T10:47:34;5.78;;;0.70;;
26512;SDS011;14186;53.822;10.152;2024-03-17T10:52:34;6.00;;;1.13;;
26512;SDS011;14186;53.822;10.152;2024-03-17T10:57:38;2.60;;;0.70;;
26512;SDS011;14186;53.822;10.152;2024-03-17T11:02:42;4.78;;;0.75;;
26512;SDS011;14186;53.822;10.152;2024-03-17T11:07:42;8.40;;;1.13;;
26512;SDS011;14186;53.822;10.152;2024-03-17T11:12:45;3.60;;;0.88;;
26512;SDS011;14186;53.822;10.152;2024-03-17T11:17:45;4.00;;;0.65;;
26512;SDS011;14186;53.822;10.152;2024-03-17T11:22:46;4.63;;;1.37;;
26512;SDS011;14186;53.822;10.152;2024-03-17T11:27:50;3.40;;;1.15;;
26512;SDS011;14186;53.822;10.152;2024-03-17T11:32:50;4.13;;;0.88;;
26512;SDS011;14186;53.822;10.152;2024-03-17T11:37:50;6.05;;;1.02;;
26512;SDS011;14186;53.822;10.152;2024-03-17T11:43:01;2.45;;;0.45;;
26512;SDS011;14186;53.822;10.152;2024-03-17T11:48:02;4.68;;;1.00;;
26512;SDS011;14186;53.822;10.152;2024-03-17T11:53:05;4.45;;;1.13;;
26512;SDS011;14186;53.822;10.152;2024-03-17T11:58:12;7.13;;;0.70;;
26512;SDS011;14186;53.822;10.152;2024-03-17T12:03:13;2.38;;;1.42;;
26512;SDS011;14186;53.822;10.152;2024-03-17T12:08:17;2.17;;;0.65;;
26512;SDS011;14186;53.822;10.152;2024-03-17T12:13:21;4.68;;;0.65;;
26512;SDS011;14186;53.822;10.152;2024-03-17T12:18:21;6.93;;;0.68;;
26512;SDS011;14186;53.822;10.152;2024-03-17T12:23:21;5.68;;;0.70;;
26512;SDS011;14186;53.822;10.152;2024-03-17T12:28:23;2.50;;;0.70;;
26512;SDS011;14186;53.822;10.152;2024-03-17T12:33:23;3.92;;;0.63;;
26512;SDS011;14186;53.822;10.152;2024-03-17T12:38:24;4.28;;;0.80;;
26512;SDS011;14186;53.822;10.152;2024-03-17T12:43:25;2.28;;;0.68;;
26512;SDS011;14186;53.822;10.152;2024-03-17T12:48:26;1.98;;;0.70;;
26512;SDS011;14186;53.822;10.152;2024-03-17T12:53:26;4.07;;;1.33;;
26512;SDS011;14186;53.822;10.152;2024-03-17T12:58:28;3.22;;;0.95;;
26512;SDS011;14186;53.822;10.152;2024-03-17T13:03:28;3.13;;;0.45;;
26512;SDS011;14186;53.822;10.152;2024-03-17T13:08:29;3.00;;;0.50;;
26512;SDS011;14186;53.822;10.152;2024-03-17T13:13:30;3.40;;;0.70;;
26512;SDS011;14186;53.822;10.152;2024-03-17T13:18:31;2.42;;;0.43;;
26512;SDS011;14186;53.822;10.152;2024-03-17T13:23:31;2.00;;;0.47;;
26512;SDS011;14186;53.822;10.152;2024-03-17T13:28:32;1.92;;;0.77;;
26512;SDS011;14186;53.822;10.152;2024-03-17T13:33:33;3.40;;;0.47;;
26512;SDS011;14186;53.822;10.152;2024-03-17T13:38:33;2.15;;;0.40;;
26512;SDS011;14186;53.822;10.152;2024-03-17T13:43:34;3.35;;;1.02;;
26512;SDS011;14186;53.822;10.152;2024-03-17T13:48:35;3.83;;;0.40;;
26512;SDS011;14186;53.822;10.152;2024-03-17T13:53:35;3.38;;;1.35;;
26512;SDS011;14186;53.822;10.152;2024-03-17T13:58:37;5.72;;;0.98;;
26512;SDS011;14186;53.822;10.152;2024-03-17T14:03:37;1.58;;;0.57;;
26512;SDS011;14186;53.822;10.152;2024-03-17T14:08:37;4.32;;;0.60;;
26512;SDS011;14186;53.822;10.152;2024-03-17T14:13:39;1.42;;;0.45;;
26512;SDS011;14186;53.822;10.152;2024-03-17T14:18:39;2.58;;;0.80;;
26512;SDS011;14186;53.822;10.152;2024-03-17T14:23:39;6.47;;;0.80;;
26512;SDS011;14186;53.822;10.152;2024-03-17T14:28:41;6.00;;;0.40;;
26512;SDS011;14186;53.822;10.152;2024-03-17T14:33:41;0.88;;;0.40;;
26512;SDS011;14186;53.822;10.152;2024-03-17T14:38:41;1.80;;;0.80;;
26512;SDS011;14186;53.822;10.152;2024-03-17T14:43:43;3.55;;;0.63;;
26512;SDS011;14186;53.822;10.152;2024-03-17T14:48:43;3.67;;;0.60;;
26512;SDS011;14186;53.822;10.152;2024-03-17T14:53:43;1.67;;;0.60;;
26512;SDS011;14186;53.822;10.152;2024-03-17T14:58:45;1.88;;;0.50;;
26512;SDS011;14186;53.822;10.152;2024-03-17T15:03:46;2.80;;;1.30;;
26512;SDS011;14186;53.822;10.152;2024-03-17T15:08:46;3.10;;;0.65;;
26512;SDS011;14186;53.822;10.152;2024-03-17T15:13:48;3.30;;;0.88;;
26512;SDS011;14186;53.822;10.152;2024-03-17T15:18:48;2.53;;;0.40;;
26512;SDS011;14186;53.822;10.152;2024-03-17T15:23:48;3.30;;;1.05;;
26512;SDS011;14186;53.822;10.152;2024-03-17T15:28:50;1.85;;;0.68;;
26512;SDS011;14186;53.822;10.152;2024-03-17T15:33:50;3.40;;;0.75;;
26512;SDS011;14186;53.822;10.152;2024-03-17T15:38:51;5.78;;;1.23;;
26512;SDS011;14186;53.822;10.152;2024-03-17T15:43:53;2.80;;;0.70;;
26512;SDS011;14186;53.822;10.152;2024-03-17T15:48:53;3.58;;;0.63;;
26512;SDS011;14186;53.822;10.152;2024-03-17T15:53:53;4.28;;;0.90;;
26512;SDS011;14186;53.822;10.152;2024-03-17T15:58:55;4.22;;;0.82;;
26512;SDS011;14186;53.822;10.152;2024-03-17T16:03:55;6.72;;;0.88;;
26512;SDS011;14186;53.822;10.152;2024-03-17T16:08:56;5.32;;;1.10;;
26512;SDS011;14186;53.822;10.152;2024-03-17T16:14:00;2.60;;;0.80;;
26512;SDS011;14186;53.822;10.152;2024-03-17T16:19:00;5.78;;;0.80;;
26512;SDS011;14186;53.822;10.152;2024-03-17T16:24:01;3.25;;;1.02;;
26512;SDS011;14186;53.822;10.152;2024-03-17T16:29:03;2.63;;;0.75;;
26512;SDS011;14186;53.822;10.152;2024-03-17T16:34:04;2.88;;;0.90;;
26512;SDS011;14186;53.822;10.152;2024-03-17T16:39:04;4.10;;;1.00;;
26512;SDS011;14186;53.822;10.152;2024-03-17T16:44:07;2.40;;;0.80;;
26512;SDS011;14186;53.822;10.152;2024-03-17T16:49:08;1.25;;;0.68;;
26512;SDS011;14186;53.822;10.152;2024-03-17T16:54:09;2.55;;;1.05;;
26512;SDS011;14186;53.822;10.152;2024-03-17T16:59:10;2.42;;;0.93;;
26512;SDS011;14186;53.822;10.152;2024-03-17T17:04:11;6.35;;;1.73;;
26512;SDS011;14186;53.822;10.152;2024-03-17T17:09:11;8.77;;;2.28;;
26512;SDS011;14186;53.822;10.152;2024-03-17T17:14:12;4.32;;;1.75;;
26512;SDS011;14186;53.822;10.152;2024-03-17T17:19:13;2.95;;;1.90;;
26512;SDS011;14186;53.822;10.152;2024-03-17T17:24:15;4.80;;;1.80;;
26512;SDS011;14186;53.822;10.152;2024-03-17T17:29:17;12.65;;;2.55;;
26512;SDS011;14186;53.822;10.152;2024-03-17T17:34:17;6.97;;;1.92;;
26512;SDS011;14186;53.822;10.152;2024-03-17T17:39:17;3.97;;;2.05;;
26512;SDS011;14186;53.822;10.152;2024-03-17T17:44:19;3.53;;;1.48;;
26512;SDS011;14186;53.822;10.152;2024-03-17T17:49:19;3.67;;;1.38;;
26512;SDS011;14186;53.822;10.152;2024-03-17T17:54:19;4.05;;;1.70;;
26512;SDS011;14186;53.822;10.152;2024-03-17T17:59:21;2.53;;;1.40;;
26512;SDS011;14186;53.822;10.152;2024-03-17T18:04:21;5.63;;;2.20;;
26512;SDS011;14186;53.822;10.152;2024-03-17T18:09:22;1.83;;;1.27;;
26512;SDS011;14186;53.822;10.152;2024-03-17T18:14:23;4.00;;;1.60;;
26512;SDS011;14186;53.822;10.152;2024-03-17T18:19:24;3.78;;;1.98;;
26512;SDS011;14186;53.822;10.152;2024-03-17T18:24:24;5.40;;;1.75;;
26512;SDS011;14186;53.822;10.152;2024-03-17T18:29:26;2.63;;;1.50;;
26512;SDS011;14186;53.822;10.152;2024-03-17T18:34:26;5.75;;;1.88;;
26512;SDS011;14186;53.822;10.152;2024-03-17T18:39:26;2.72;;;1.30;;
26512;SDS011;14186;53.822;10.152;2024-03-17T18:44:28;3.95;;;1.73;;
26512;SDS011;14186;53.822;10.152;2024-03-17T18:49:28;2.80;;;1.50;;
26512;SDS011;14186;53.822;10.152;2024-03-17T18:54:28;4.78;;;1.90;;
26512;SDS011;14186;53.822;10.152;2024-03-17T18:59:30;4.53;;;1.65;;
26512;SDS011;14186;53.822;10.152;2024-03-17T19:04:30;3.42;;;1.60;;
26512;SDS011;14186;53.822;10.152;2024-03-17T19:09:30;2.67;;;1.70;;
26512;SDS011;14186;53.822;10.152;2024-03-17T19:14:32;3.88;;;1.60;;
26512;SDS011;14186;53.822;10.152;2024-03-17T19:19:32;2.72;;;1.52;;
26512;SDS011;14186;53.822;10.152;2024-03-17T19:24:32;4.57;;;1.90;;
26512;SDS011;14186;53.822;10.152;2024-03-17T19:29:34;4.57;;;1.60;;
26512;SDS011;14186;53.822;10.152;2024-03-17T19:34:34;2.40;;;1.48;;
26512;SDS011;14186;53.822;10.152;2024-03-17T19:39:34;3.80;;;1.65;;
26512;SDS011;14186;53.822;10.152;2024-03-17T19:44:36;6.00;;;1.85;;
26512;SDS011;14186;53.822;10.152;2024-03-17T19:49:36;3.35;;;1.50;;
26512;SDS011;14186;53.822;10.152;2024-03-17T19:54:37;2.45;;;1.63;;
26512;SDS011;14186;53.822;10.152;2024-03-17T19:59:38;3.95;;;1.70;;
26512;SDS011;14186;53.822;10.152;2024-03-17T20:04:38;5.97;;;1.50;;
26512;SDS011;14186;53.822;10.152;2024-03-17T20:09:39;4.38;;;1.63;;
26512;SDS011;14186;53.822;10.152;2024-03-17T20:14:40;3.38;;;1.50;;
26512;SDS011;14186;53.822;10.152;2024-03-17T20:19:40;4.25;;;1.70;;
26512;SDS011;14186;53.822;10.152;2024-03-17T20:24:41;7.00;;;1.63;;
26512;SDS011;14186;53.822;10.152;2024-03-17T20:29:43;3.10;;;1.25;;
26512;SDS011;14186;53.822;10.152;2024-03-17T20:34:43;3.55;;;1.73;;
26512;SDS011;14186;53.822;10.152;2024-03-17T20:39:43;2.70;;;1.20;;
26512;SDS011;14186;53.822;10.152;2024-03-17T20:44:45;2.38;;;1.02;;
26512;SDS011;14186;53.822;10.152;2024-03-17T20:49:45;2.58;;;1.30;;
26512;SDS011;14186;53.822;10.152;2024-03-17T20:54:45;3.78;;;1.42;;
26512;SDS011;14186;53.822;10.152;2024-03-17T20:59:47;2.55;;;1.30;;
26512;SDS011;14186;53.822;10.152;2024-03-17T21:04:47;2.85;;;1.50;;
26512;SDS011;14186;53.822;10.152;2024-03-17T21:09:47;2.38;;;1.23;;
26512;SDS011;14186;53.822;10.152;2024-03-17T21:14:50;2.30;;;1.30;;
26512;SDS011;14186;53.822;10.152;2024-03-17T21:19:51;2.85;;;1.63;;
26512;SDS011;14186;53.822;10.152;2024-03-17T21:24:51;5.45;;;1.33;;
26512;SDS011;14186;53.822;10.152;2024-03-17T21:29:53;3.42;;;1.52;;
26512;SDS011;14186;53.822;10.152;2024-03-17T21:34:53;1.90;;;1.10;;
26512;SDS011;14186;53.822;10.152;2024-03-17T21:39:54;1.92;;;1.05;;
26512;SDS011;14186;53.822;10.152;2024-03-17T21:44:55;3.30;;;1.67;;
26512;SDS011;14186;53.822;10.152;2024-03-17T21:49:55;4.22;;;1.20;;
26512;SDS011;14186;53.822;10.152;2024-03-17T21:54:56;4.13;;;1.40;;
26512;SDS011;14186;53.822;10.152;2024-03-17T21:59:57;3.97;;;1.70;;
26512;SDS011;14186;53.822;10.152;2024-03-17T22:04:58;2.90;;;1.52;;
26512;SDS011;14186;53.822;10.152;2024-03-17T22:09:58;4.30;;;2.17;;
26512;SDS011;14186;53.822;10.152;2024-03-17T22:15:00;3.90;;;1.80;;
26512;SDS011;14186;53.822;10.152;2024-03-17T22:20:00;3.30;;;1.23;;
26512;SDS011;14186;53.822;10.152;2024-03-17T22:25:00;3.33;;;1.33;;
26512;SDS011;14186;53.822;10.152;2024-03-17T22:30:02;3.38;;;1.42;;
26512;SDS011;14186;53.822;10.152;2024-03-17T22:35:03;3.08;;;1.60;;
26512;SDS011;14186;53.822;10.152;2024-03-17T22:40:03;3.72;;;1.77;;
26512;SDS011;14186;53.822;10.152;2024-03-17T22:45:05;2.60;;;1.58;;
26512;SDS011;14186;53.822;10.152;2024-03-17T22:50:06;5.00;;;1.50;;
26512;SDS011;14186;53.822;10.152;2024-03-17T22:55:07;5.53;;;2.13;;
26512;SDS011;14186;53.822;10.152;2024-03-17T23:00:09;1.73;;;1.10;;
26512;SDS011;14186;53.822;10.152;2024-03-17T23:05:10;5.88;;;2.25;;
26512;SDS011;14186;53.822;10.152;2024-03-17T23:10:10;3.83;;;1.80;;
26512;SDS011;14186;53.822;10.152;2024-03-17T23:15:12;4.22;;;1.85;;
26512;SDS011;14186;53.822;10.152;2024-03-17T23:20:12;4.63;;;1.80;;
26512;SDS011;14186;53.822;10.152;2024-03-17T23:25:13;3.25;;;1.60;;
26512;SDS011;14186;53.822;10.152;2024-03-17T23:30:14;3.13;;;1.63;;
26512;SDS011;14186;53.822;10.152;2024-03-17T23:35:15;8.32;;;1.90;;
26512;SDS011;14186;53.822;10.152;2024-03-17T23:40:15;3.95;;;1.83;;
26512;SDS011;14186;53.822;10.152;2024-03-17T23:45:16;3.58;;;1.75;;
26512;SDS011;14186;53.822;10.152;2024-03-17T23:50:17;3.28;;;1.17;;
26512;SDS011;14186;53.822;10.152;2024-03-17T23:55:17;4.15;;;1.50;;
